Terminal Aerodrome Forecast
Issued by NWS

Home | Current Version | Previous Version | Text Only | Print | Product List | Glossary On
Versions: 1 2 3 4 5 6 7 8 9 10 11 12 13 14 15 16 17 18 19 20 21 22 23 24 25 26 27 28 29 30 31 32 33 34 35 36 37 38 39 40 41 42 43 44 45 46 47 48 49 50
384
FTUS45 KBOU 280003 AAA
TAFBJC
TAF AMD
KBJC 280003Z 2800/2824 02007G12KT P6SM VCSH SCT030 BKN045 OVC100
     FM280200 35011KT P6SM VCSH SCT045 BKN060 BKN100
     FM280400 29008KT P6SM SCT070 BKN120
     FM280600 26006KT P6SM FEW070 SCT120
     FM281600 30007KT P6SM FEW140
     FM282000 34014KT P6SM FEW080 SCT140 BKN200=

USA.gov is the U.S. government's official web portal to all federal, state and local government web resources and services.